createdAt,value
2022-10-14T00:01:33.665Z,89.21
2022-10-14T00:04:02.382Z,89.42
2022-10-14T00:06:34.216Z,86.71
2022-10-14T00:09:07.306Z,86.78
2022-10-14T00:11:38.269Z,86.54
2022-10-14T00:14:13.785Z,84.02
2022-10-14T00:16:44.363Z,84.31
2022-10-14T00:19:15.043Z,86.05
2022-10-14T00:21:46.752Z,82.89
2022-10-14T00:24:17.877Z,87.13
2022-10-14T00:26:48.040Z,93.51
2022-10-14T00:29:21.909Z,94.37
2022-10-14T00:31:52.655Z,94.01
2022-10-14T00:34:21.444Z,88.88
2022-10-14T00:36:49.956Z,92.17
2022-10-14T00:39:20.966Z,87.57
2022-10-14T00:41:50.076Z,85.03
2022-10-14T00:44:21.781Z,82.06
2022-10-14T00:46:52.096Z,79.52
2022-10-14T00:49:35.964Z,79.95
2022-10-14T00:52:20.076Z,80.38
2022-10-14T00:54:59.419Z,78.60
2022-10-14T00:57:30.868Z,76.22
2022-10-14T01:00:09.583Z,77.43
2022-10-14T01:02:38.854Z,76.70
2022-10-14T01:05:11.047Z,74.69
2022-10-14T01:07:53.929Z,76.03
2022-10-14T01:10:32.348Z,76.05
2022-10-14T01:13:19.366Z,74.80
2022-10-14T01:16:18.122Z,71.94
2022-10-14T01:19:25.391Z,70.19
2022-10-14T01:22:04.207Z,71.11
2022-10-14T01:25:01.559Z,70.63
2022-10-14T01:27:45.110Z,67.44
2022-10-14T01:30:25.793Z,66.64
2022-10-14T01:33:06.092Z,65.22
2022-10-14T01:35:58.771Z,64.12
2022-10-14T01:38:59.839Z,62.50
2022-10-14T01:41:36.333Z,62.56
2022-10-14T01:44:11.272Z,61.68
2022-10-14T01:46:47.822Z,61.44
2022-10-14T05:56:09.727Z,47.51
2022-10-14T05:58:42.219Z,49.00
2022-10-14T06:01:12.997Z,48.12
2022-10-14T06:03:47.134Z,48.90
2022-10-14T06:06:16.211Z,48.17
2022-10-14T06:08:45.922Z,47.55
2022-10-14T06:11:15.362Z,46.42
2022-10-14T06:13:44.494Z,45.47
2022-10-14T06:16:13.441Z,44.44
2022-10-14T06:18:42.692Z,43.07
2022-10-14T06:21:13.630Z,45.01
2022-10-14T06:23:42.593Z,44.51
2022-10-14T06:26:11.302Z,42.11
2022-10-14T06:28:41.032Z,43.91
2022-10-14T06:31:09.779Z,47.48
2022-10-14T06:33:38.866Z,43.26
2022-10-14T06:36:11.194Z,43.47
2022-10-14T06:38:39.914Z,43.43
2022-10-14T06:41:08.702Z,40.92
2022-10-14T06:43:41.194Z,45.96
2022-10-14T06:46:10.207Z,44.49
2022-10-14T06:48:38.877Z,43.00
2022-10-14T06:51:08.063Z,40.58
2022-10-14T06:53:36.823Z,41.92
2022-10-14T06:56:07.850Z,41.73
2022-10-14T06:58:36.739Z,41.95
2022-10-14T07:01:09.542Z,42.65
2022-10-14T07:03:40.205Z,42.28
2022-10-14T07:06:10.399Z,41.43
2022-10-14T07:08:39.475Z,45.48
2022-10-14T07:11:09.093Z,44.21
2022-10-14T07:13:38.780Z,43.25
2022-10-14T07:16:07.802Z,41.72
2022-10-14T07:18:36.989Z,41.78
2022-10-14T07:21:07.004Z,41.05
2022-10-14T07:23:36.252Z,42.67
2022-10-14T07:26:05.226Z,42.07
2022-10-14T07:28:35.052Z,39.81
2022-10-14T07:31:08.413Z,42.66
2022-10-14T07:33:39.814Z,41.86
2022-10-14T07:36:13.038Z,45.24
2022-10-14T07:38:44.083Z,38.35
2022-10-14T07:41:19.374Z,40.06
2022-10-14T07:43:51.932Z,42.33
2022-10-14T07:46:30.496Z,40.59
2022-10-14T07:49:01.950Z,42.49
2022-10-14T07:51:31.332Z,43.24
2022-10-14T07:54:02.688Z,42.46
2022-10-14T07:56:31.668Z,44.66
2022-10-14T07:59:00.674Z,47.05
2022-10-14T08:01:29.671Z,40.96
2022-10-14T08:03:59.000Z,45.06
2022-10-14T08:06:27.898Z,41.32
2022-10-14T08:08:56.800Z,40.98
2022-10-14T08:11:29.087Z,41.02
2022-10-14T08:13:59.762Z,41.50
2022-10-14T08:16:31.507Z,41.83
2022-10-14T08:19:02.330Z,51.40
2022-10-14T08:21:31.247Z,40.62
2022-10-14T08:24:00.169Z,42.82
2022-10-14T08:26:41.693Z,43.27
2022-10-14T08:29:13.571Z,42.82
2022-10-14T08:31:42.518Z,41.99
2022-10-14T08:34:12.066Z,44.19
2022-10-14T08:36:41.240Z,44.12
2022-10-14T08:42:12.157Z,46.31
2022-10-14T08:44:46.726Z,44.74
2022-10-14T08:47:21.486Z,50.47
2022-10-14T08:50:04.901Z,43.70
2022-10-14T08:52:46.522Z,47.85
2022-10-14T08:55:39.113Z,44.97
2022-10-14T08:58:33.462Z,44.58
2022-10-14T09:01:35.854Z,47.46
2022-10-14T09:04:08.429Z,44.48
2022-10-14T09:06:42.173Z,43.49
2022-10-14T09:09:20.601Z,42.93
2022-10-14T09:12:13.971Z,44.31
2022-10-14T09:15:00.617Z,48.61
2022-10-14T09:17:38.370Z,45.08
2022-10-14T09:20:29.750Z,47.22
2022-10-14T09:23:24.416Z,45.45
2022-10-14T09:26:05.778Z,45.76
2022-10-14T09:28:41.424Z,48.95
2022-10-14T09:31:14.495Z,46.57
2022-10-14T09:33:45.838Z,46.53
2022-10-14T09:36:21.030Z,47.67
2022-10-14T09:38:53.724Z,47.72
2022-10-14T09:41:29.416Z,47.36
2022-10-14T09:44:22.459Z,45.46
2022-10-14T09:46:58.325Z,45.88
2022-10-14T09:49:35.436Z,46.38
2022-10-14T09:52:05.133Z,47.90
2022-10-14T09:54:35.679Z,44.89
2022-10-14T09:57:09.029Z,45.83
2022-10-14T09:59:55.289Z,47.83
2022-10-14T10:02:35.918Z,45.73
2022-10-14T10:05:29.798Z,45.18
2022-10-14T10:08:11.941Z,44.88
2022-10-14T10:10:41.443Z,48.19
2022-10-14T10:13:23.250Z,45.54
2022-10-14T10:16:03.974Z,46.29
2022-10-14T10:18:32.960Z,45.80
2022-10-14T10:21:07.648Z,46.29
2022-10-14T10:23:37.881Z,46.98
2022-10-14T10:26:18.706Z,46.36
2022-10-14T10:28:50.815Z,49.66
2022-10-14T10:31:56.734Z,47.38
2022-10-14T10:34:31.565Z,46.93
2022-10-14T10:37:34.466Z,50.32
2022-10-14T10:40:25.719Z,48.79
2022-10-14T10:43:17.334Z,46.59
2022-10-14T10:46:18.344Z,49.09
2022-10-14T10:49:09.877Z,47.30
2022-10-14T10:52:00.609Z,49.13
2022-10-14T10:54:48.897Z,50.21
2022-10-14T10:57:33.031Z,49.24
2022-10-14T11:00:10.100Z,51.28
2022-10-14T11:02:59.649Z,52.20
2022-10-14T11:05:40.388Z,53.26
2022-10-14T11:08:52.953Z,54.47
2022-10-14T11:12:02.860Z,55.07
2022-10-14T11:14:37.400Z,53.84
2022-10-14T11:17:25.228Z,55.18
2022-10-14T11:20:00.416Z,56.12
2022-10-14T11:22:54.599Z,58.20
2022-10-14T11:25:41.538Z,60.83
2022-10-14T11:28:40.728Z,61.95
2022-10-14T11:31:33.808Z,64.04
2022-10-14T11:34:26.053Z,66.55
2022-10-14T11:37:24.899Z,69.17
2022-10-14T11:40:08.093Z,72.70
2022-10-14T11:42:57.738Z,77.81
2022-10-14T11:45:51.215Z,82.72
2022-10-14T11:48:25.909Z,89.35
2022-10-14T11:51:21.181Z,93.89
2022-10-14T11:54:01.753Z,96.50
2022-10-14T11:56:41.132Z,100.00
2022-10-14T11:59:41.326Z,100.00
2022-10-14T12:02:45.977Z,100.00
2022-10-14T12:06:00.267Z,100.00
2022-10-14T12:08:33.289Z,100.00
2022-10-14T12:11:10.431Z,100.00
2022-10-14T12:13:58.836Z,100.00
2022-10-14T12:16:28.633Z,100.00
2022-10-14T12:18:58.855Z,100.00
2022-10-14T12:21:52.493Z,100.00
2022-10-14T12:24:34.812Z,100.00
2022-10-14T12:27:08.489Z,100.00
2022-10-14T12:29:49.134Z,100.00
2022-10-14T12:32:20.495Z,100.00
2022-10-14T12:34:58.038Z,100.00
2022-10-14T12:37:36.110Z,100.00
2022-10-14T12:40:07.751Z,100.00
2022-10-14T12:42:45.578Z,100.00
2022-10-14T12:45:19.901Z,100.00
2022-10-14T12:47:49.091Z,100.00
2022-10-14T12:50:20.613Z,100.00
2022-10-14T12:52:58.497Z,100.00
2022-10-14T12:55:32.413Z,100.00
2022-10-14T12:58:05.685Z,100.00
2022-10-14T13:00:43.614Z,100.00
2022-10-14T13:03:23.143Z,100.00
2022-10-14T13:05:53.511Z,100.00
2022-10-14T13:08:24.550Z,100.00
2022-10-14T13:10:56.893Z,100.00
2022-10-14T13:13:52.650Z,100.00
2022-10-14T13:16:27.657Z,100.00
2022-10-14T13:18:59.889Z,100.00
2022-10-14T13:21:36.690Z,100.00
2022-10-14T13:24:18.413Z,100.00
2022-10-14T13:26:56.198Z,100.00
2022-10-14T13:29:49.208Z,100.00
2022-10-14T13:32:35.363Z,100.00
2022-10-14T13:35:23.606Z,100.00
2022-10-14T13:38:07.695Z,100.00
2022-10-14T13:40:44.810Z,100.00
2022-10-14T13:43:22.410Z,100.00
2022-10-14T13:46:29.423Z,100.00
2022-10-14T13:49:02.074Z,100.00
2022-10-14T13:51:56.758Z,100.00
2022-10-14T13:54:33.414Z,100.00
2022-10-14T13:57:53.617Z,100.00
2022-10-14T14:02:56.785Z,100.00
2022-10-14T14:05:33.406Z,100.00
2022-10-14T14:11:16.204Z,100.00
2022-10-14T14:14:06.115Z,100.00
2022-10-14T14:16:49.909Z,100.00
2022-10-14T14:19:26.027Z,100.00
2022-10-14T14:22:28.413Z,100.00
2022-10-14T14:28:16.222Z,100.00
2022-10-14T14:30:54.838Z,100.00
2022-10-14T14:33:32.172Z,100.00
2022-10-14T14:36:22.260Z,100.00
2022-10-14T14:39:00.036Z,100.00
2022-10-14T14:41:31.818Z,100.00
2022-10-14T14:44:25.658Z,100.00
2022-10-14T14:46:59.016Z,100.00
2022-10-14T14:49:38.991Z,100.00
2022-10-14T14:52:08.856Z,100.00
2022-10-14T14:54:51.276Z,100.00
2022-10-14T14:57:22.635Z,100.00
2022-10-14T15:00:03.994Z,100.00
2022-10-14T15:02:35.775Z,100.00
2022-10-14T15:05:13.213Z,100.00
2022-10-14T15:07:44.802Z,100.00
2022-10-14T15:10:27.000Z,100.00
2022-10-14T15:12:58.338Z,100.00
2022-10-14T15:15:33.291Z,100.00
2022-10-14T15:18:21.515Z,100.00
2022-10-14T15:20:51.087Z,100.00
2022-10-14T15:23:42.742Z,100.00
2022-10-14T15:26:25.044Z,100.00
2022-10-14T15:29:09.390Z,100.00
2022-10-14T15:31:40.734Z,100.00
2022-10-14T15:34:24.163Z,100.00
2022-10-14T15:36:55.070Z,100.00
2022-10-14T15:39:24.653Z,100.00
2022-10-14T15:41:53.198Z,100.00
2022-10-14T15:44:22.078Z,99.89
2022-10-14T15:47:09.841Z,90.65
2022-10-14T15:49:46.147Z,85.34
2022-10-14T15:52:22.941Z,79.07
2022-10-14T15:54:56.885Z,80.67
2022-10-14T15:57:26.140Z,78.89
2022-10-14T15:59:55.773Z,76.52
2022-10-14T16:02:34.560Z,71.99
2022-10-14T16:05:20.075Z,71.13
2022-10-14T16:07:50.183Z,71.10
2022-10-14T16:10:22.334Z,71.03
2022-10-14T16:12:51.608Z,71.04
2022-10-14T16:15:29.833Z,70.69
2022-10-14T16:18:00.615Z,70.85
2022-10-14T16:20:31.719Z,70.29
2022-10-14T16:23:02.231Z,70.59
2022-10-14T16:25:40.734Z,69.56
2022-10-14T16:28:12.464Z,71.44
2022-10-14T16:30:49.589Z,72.89
2022-10-14T16:33:20.587Z,73.41
2022-10-14T16:35:55.100Z,74.54
2022-10-14T16:38:25.783Z,73.63
2022-10-14T16:40:58.439Z,73.36
2022-10-14T16:43:28.247Z,73.21
2022-10-14T16:46:02.193Z,70.42
2022-10-14T16:48:31.662Z,69.86
2022-10-14T16:51:00.635Z,69.63
2022-10-14T16:53:44.449Z,65.32
2022-10-14T16:56:39.902Z,62.86
2022-10-14T16:59:09.229Z,63.93
2022-10-14T17:01:38.038Z,65.28
2022-10-14T17:04:14.974Z,65.93
2022-10-14T17:06:44.653Z,66.64
2022-10-14T17:09:15.054Z,69.14
2022-10-14T17:11:44.309Z,71.71
2022-10-14T17:14:18.994Z,73.90
2022-10-14T17:16:48.000Z,74.98
2022-10-14T17:19:16.682Z,75.47
2022-10-14T17:21:45.785Z,77.72
2022-10-14T17:24:17.843Z,78.76
2022-10-14T17:26:46.931Z,74.54
2022-10-14T17:29:15.866Z,74.01
2022-10-14T17:31:47.145Z,69.03
2022-10-14T17:34:15.829Z,72.57
2022-10-14T17:36:44.591Z,73.56
2022-10-14T17:39:20.181Z,73.12
2022-10-14T17:41:55.772Z,76.18
2022-10-14T17:44:24.625Z,76.79
2022-10-14T17:46:55.901Z,76.40
2022-10-14T17:49:25.053Z,74.95
2022-10-14T17:51:53.926Z,81.69
2022-10-14T17:54:22.642Z,83.90
2022-10-14T17:56:51.983Z,87.08
2022-10-14T17:59:21.805Z,86.07
2022-10-14T18:02:02.641Z,95.32
2022-10-14T18:04:33.477Z,100.00
2022-10-14T18:07:02.567Z,100.00
2022-10-14T18:09:31.260Z,100.00
2022-10-14T18:12:09.267Z,100.00
2022-10-14T18:14:41.269Z,100.00
2022-10-14T18:17:15.285Z,100.00
2022-10-14T18:19:47.220Z,100.00
2022-10-14T18:22:21.113Z,100.00
2022-10-14T18:24:49.688Z,100.00
2022-10-14T18:27:18.797Z,100.00
2022-10-14T18:29:47.853Z,100.00
2022-10-14T18:32:54.099Z,100.00
2022-10-14T18:35:30.173Z,100.00
2022-10-14T18:37:59.419Z,100.00
2022-10-14T18:40:28.795Z,100.00
2022-10-14T18:42:59.313Z,100.00
2022-10-14T18:45:28.457Z,100.00
2022-10-14T18:48:00.552Z,100.00
2022-10-14T18:50:29.998Z,100.00
2022-10-14T18:52:59.014Z,100.00
2022-10-14T18:55:29.073Z,100.00
2022-10-14T18:58:01.310Z,100.00
2022-10-14T19:00:30.273Z,96.61
2022-10-14T19:02:58.988Z,81.72
2022-10-14T19:05:32.996Z,82.45
2022-10-14T19:08:04.537Z,84.95
2022-10-14T19:10:34.349Z,85.16
2022-10-14T19:13:05.239Z,91.49
2022-10-14T19:15:46.124Z,100.00
2022-10-14T19:18:18.975Z,100.00
2022-10-14T19:20:54.020Z,100.00
2022-10-14T19:23:23.129Z,95.20
2022-10-14T19:25:52.093Z,92.64
2022-10-14T19:28:21.214Z,85.21
2022-10-14T19:30:50.115Z,97.54
2022-10-14T19:33:19.117Z,100.00
2022-10-14T19:36:01.244Z,100.00
2022-10-14T19:38:30.413Z,100.00
2022-10-14T19:41:04.084Z,100.00
2022-10-14T19:43:33.780Z,100.00
2022-10-14T19:46:09.953Z,100.00
2022-10-14T19:48:39.805Z,93.70
2022-10-14T19:51:12.880Z,75.99
2022-10-14T19:53:42.164Z,66.35
2022-10-14T19:56:14.163Z,62.53
2022-10-14T19:58:44.863Z,64.63
2022-10-14T20:01:53.441Z,58.38
2022-10-14T20:04:26.663Z,61.26
2022-10-14T20:06:56.385Z,62.57
2022-10-14T20:09:25.509Z,61.37
2022-10-14T20:11:54.786Z,61.12
2022-10-14T20:14:23.620Z,62.56
2022-10-14T20:16:55.171Z,63.76
2022-10-14T20:19:25.125Z,65.44
2022-10-14T20:21:53.717Z,61.78
2022-10-14T20:24:22.485Z,58.96
2022-10-14T20:26:51.256Z,57.82
2022-10-14T20:29:20.005Z,59.36
2022-10-14T20:31:48.637Z,60.72
2022-10-14T20:34:17.749Z,60.11
2022-10-14T20:36:46.433Z,60.95
2022-10-14T20:39:15.625Z,60.35
2022-10-14T20:41:44.566Z,60.33
2022-10-14T20:44:13.378Z,59.36
2022-10-14T20:46:41.962Z,54.78
2022-10-14T20:49:10.998Z,57.33
2022-10-14T20:51:40.264Z,77.71
2022-10-14T20:54:11.860Z,91.15
2022-10-14T20:56:41.080Z,96.23
2022-10-14T20:59:13.322Z,100.00
2022-10-14T21:01:42.434Z,99.71
2022-10-14T21:04:11.134Z,100.00
2022-10-14T21:06:40.077Z,100.00
2022-10-14T21:09:08.886Z,97.03
2022-10-14T21:11:37.944Z,100.00
2022-10-14T21:14:07.041Z,95.53
2022-10-14T21:16:37.896Z,75.80
2022-10-14T21:19:12.077Z,67.71
2022-10-14T21:21:44.039Z,59.45
2022-10-14T21:24:17.487Z,61.01
2022-10-14T21:26:48.784Z,61.12
2022-10-14T21:29:18.703Z,62.04
2022-10-14T21:31:47.894Z,62.79
2022-10-14T21:34:17.087Z,63.86
2022-10-14T21:36:46.068Z,70.97
2022-10-14T21:39:17.009Z,75.42
2022-10-14T21:41:46.787Z,72.02
2022-10-14T21:44:17.595Z,70.51
2022-10-14T21:46:47.342Z,73.77
2022-10-14T21:49:16.661Z,75.34
2022-10-14T21:51:45.766Z,80.74
2022-10-14T21:54:15.194Z,79.21
2022-10-14T21:56:44.169Z,72.77
2022-10-14T21:59:13.996Z,71.30
2022-10-14T22:01:43.017Z,70.87
2022-10-14T22:04:33.307Z,75.91
2022-10-14T22:07:07.513Z,76.82
2022-10-14T22:09:36.289Z,77.46
2022-10-14T22:12:05.926Z,72.21
2022-10-14T22:15:12.518Z,70.09
2022-10-14T22:17:41.597Z,74.60
2022-10-14T22:20:10.907Z,72.18
2022-10-14T22:22:40.045Z,73.49
2022-10-14T22:25:09.359Z,69.09
2022-10-14T22:27:38.459Z,64.55
2022-10-14T22:30:08.024Z,64.25
2022-10-14T22:32:37.048Z,63.79
2022-10-14T22:35:37.925Z,65.90
2022-10-14T22:38:07.117Z,57.40
2022-10-14T22:40:36.144Z,56.01
2022-10-14T22:43:05.047Z,53.03
2022-10-14T22:45:33.848Z,51.73
2022-10-14T22:48:03.211Z,51.59
2022-10-14T22:50:32.067Z,54.27
2022-10-14T22:53:01.049Z,54.77
2022-10-14T22:55:29.892Z,54.73
2022-10-14T22:57:59.135Z,54.81
2022-10-14T23:00:28.033Z,54.77
2022-10-14T23:02:57.523Z,55.29
2022-10-14T23:05:26.223Z,55.16
2022-10-14T23:07:55.323Z,55.04
2022-10-14T23:10:24.115Z,55.63
2022-10-14T23:12:53.171Z,56.53
2022-10-14T23:15:22.001Z,56.80
2022-10-14T23:17:51.097Z,54.37
2022-10-14T23:20:19.763Z,54.49
2022-10-14T23:22:48.915Z,57.55
2022-10-14T23:25:17.909Z,57.32
2022-10-14T23:27:47.177Z,53.58
2022-10-14T23:30:15.904Z,52.90
2022-10-14T23:32:46.771Z,52.12
2022-10-14T23:35:15.659Z,51.56
2022-10-14T23:37:45.373Z,50.81
2022-10-14T23:40:17.505Z,50.98
2022-10-14T23:43:24.610Z,49.98
2022-10-14T23:45:55.718Z,50.20
2022-10-14T23:49:13.960Z,48.63
2022-10-14T23:51:50.508Z,48.43
2022-10-14T23:54:19.167Z,48.27
2022-10-14T23:56:48.204Z,48.33
2022-10-14T23:59:17.322Z,47.52
